Alpha, Minnesota
Current Conditions -  °F | °C
As of 3:53 AM on Sunday 23 Nov 2014 (Local Time) from KMJQ Reporting Station
Haze Haze  
Wind Chill: 50°   Ceiling: 1000
Heat Index: 50°   Visibility: 5mi
Dew Point: 46°   Wind: 9mph
Humidity: 87%   Direction: 180°S
Pressure: 29.43"   Gusts: NA
Location:  43.64°N, 94.87°W
Report Text: KMJQ 230953Z AUTO 18008KT 5SM BR BKN010 BKN120 10/08 A2943 RMK AO2
Loading
Personal Weather Stations






























Interactive Weather Map New forecast layout! Learn more

10-Day Weather Forecast

Advertisements
Track Severe Weather on mobile